Time;durP1;ratioP1;P1;durP2;ratioP2;P2;SDS_P1;SDS_P2;PMS_P1;PMS_P2;Temp;Humidity;BMP_temperature;BMP_pressure;BME280_temperature;BME280_humidity;BME280_pressure;Samples;Min_cycle;Max_cycle;Signal;HPM_P1;HPM_P2
2022/04/03 00:00:16;;;;;;;4.40;1.90;;;;;;;6.69;74.67;93544.03;5023458;28;20573;-74
2022/04/03 00:02:44;;;;;;;2.58;1.52;;;;;;;6.74;73.33;93547.31;5026303;28;20228;-74
2022/04/03 00:05:11;;;;;;;4.22;1.83;;;;;;;6.65;72.79;93551.19;5022648;28;20603;-74
2022/04/03 00:07:37;;;;;;;3.10;1.67;;;;;;;6.73;73.72;93553.00;5018412;28;20717;-74
2022/04/03 00:10:05;;;;;;;1.77;1.20;;;;;;;6.75;73.48;93542.69;5032157;28;20207;-74
2022/04/03 00:12:32;;;;;;;1.00;0.73;;;;;;;6.73;73.82;93528.78;5027432;28;20248;-75
2022/04/03 00:14:59;;;;;;;1.73;0.75;;;;;;;6.50;74.60;93516.81;5023564;28;20227;-73
2022/04/03 00:17:26;;;;;;;1.90;1.30;;;;;;;6.32;75.59;93516.94;5019045;28;20250;-75
2022/04/03 00:19:54;;;;;;;24.45;8.13;;;;;;;6.24;76.56;93520.47;5021237;28;20652;-75
2022/04/03 00:22:24;;;;;;;10.57;4.10;;;;;;;6.29;75.66;93528.34;5025868;28;20735;-75
2022/04/03 00:24:51;;;;;;;6.38;2.22;;;;;;;6.31;76.67;93536.88;5014693;28;20201;-76
2022/04/03 00:27:18;;;;;;;4.53;2.22;;;;;;;6.17;78.31;93524.78;5026005;28;20201;-76
2022/04/03 00:29:45;;;;;;;2.85;1.50;;;;;;;6.20;78.11;93529.53;5024977;28;20622;-75
2022/04/03 00:32:12;;;;;;;24.38;8.27;;;;;;;6.17;76.15;93520.19;5018794;28;20783;-76
2022/04/03 00:34:39;;;;;;;3.47;1.48;;;;;;;6.18;77.06;93515.63;5019854;28;20205;-75
2022/04/03 00:37:07;;;;;;;5.15;1.83;;;;;;;6.20;76.64;93508.81;5025367;28;20233;-76
2022/04/03 00:39:34;;;;;;;1.20;0.80;;;;;;;6.19;73.65;93506.44;5025444;28;20266;-75
2022/04/03 00:42:01;;;;;;;1.58;0.93;;;;;;;6.23;75.15;93512.75;5018890;28;20220;-76
2022/04/03 00:44:28;;;;;;;1.30;1.10;;;;;;;6.25;74.68;93519.38;5018278;28;20236;-77
2022/04/03 00:46:57;;;;;;;1.55;1.05;;;;;;;6.21;75.80;93521.13;5031958;28;20204;-76
2022/04/03 00:49:24;;;;;;;2.85;1.58;;;;;;;6.30;76.77;93524.53;5031079;28;20212;-76
2022/04/03 00:51:51;;;;;;;4.25;2.45;;;;;;;6.39;78.40;93516.44;5019130;28;20201;-75
2022/04/03 00:54:19;;;;;;;3.10;1.55;;;;;;;6.43;77.66;93515.41;5018000;28;20220;-76
2022/04/03 00:56:46;;;;;;;5.38;2.10;;;;;;;6.34;75.43;93503.16;5031396;28;20235;-76
2022/04/03 00:59:14;;;;;;;3.10;1.92;;;;;;;6.37;77.74;93506.00;5018478;28;20208;-75
2022/04/03 01:01:42;;;;;;;4.22;1.85;;;;;;;6.47;76.69;93520.16;5023670;28;20201;-76
2022/04/03 01:04:09;;;;;;;2.13;1.63;;;;;;;6.51;74.75;93515.69;5025042;28;20204;-75
2022/04/03 01:06:36;;;;;;;3.60;1.77;;;;;;;6.78;69.99;93513.25;5020272;28;20208;-76
2022/04/03 01:09:04;;;;;;;3.72;2.00;;;;;;;6.94;68.78;93512.63;5018664;28;20207;-76
2022/04/03 01:11:33;;;;;;;2.47;2.00;;;;;;;7.01;69.58;93502.88;5031511;28;20696;-73
2022/04/03 01:14:00;;;;;;;3.40;1.73;;;;;;;6.90;73.76;93515.19;5014482;28;20208;-76
2022/04/03 01:16:26;;;;;;;2.22;1.17;;;;;;;7.00;69.50;93513.97;5021385;28;20232;-76
2022/04/03 01:18:53;;;;;;;0.65;0.65;;;;;;;6.99;69.00;93523.94;5017582;28;20250;-72
2022/04/03 01:21:20;;;;;;;5.90;2.65;;;;;;;6.59;70.08;93533.66;5020150;28;20197;-75
2022/04/03 01:23:47;;;;;;;1.30;1.20;;;;;;;6.16;67.92;93532.06;5027378;28;20200;-76
2022/04/03 01:26:16;;;;;;;4.10;2.13;;;;;;;6.07;68.74;93520.59;5019832;28;20282;-75
2022/04/03 01:28:43;;;;;;;1.00;0.65;;;;;;;5.99;68.60;93530.31;5024814;28;20212;-74
2022/04/03 01:31:10;;;;;;;1.25;0.80;;;;;;;5.87;68.73;93524.03;5022780;28;20207;-75
2022/04/03 01:33:37;;;;;;;1.77;0.93;;;;;;;5.89;69.50;93524.50;5017369;28;20621;-75
2022/04/03 01:36:04;;;;;;;2.53;1.00;;;;;;;5.84;69.90;93538.09;5019008;28;20711;-75
2022/04/03 01:38:31;;;;;;;1.05;0.80;;;;;;;5.80;69.76;93542.53;5024878;28;20209;-74
2022/04/03 01:40:58;;;;;;;2.03;1.02;;;;;;;5.77;70.23;93543.19;5023179;28;20208;-75
2022/04/03 01:43:26;;;;;;;4.03;1.08;;;;;;;5.86;70.60;93552.78;5017704;28;20212;-75
2022/04/03 01:45:53;;;;;;;8.25;0.65;;;;;;;5.91;70.36;93554.50;5018056;28;20204;-75
2022/04/03 01:48:20;;;;;;;1.17;0.82;;;;;;;5.88;71.28;93557.81;5023779;28;20201;-75
2022/04/03 01:50:48;;;;;;;1.65;0.90;;;;;;;5.94;71.36;93559.25;5023221;28;20267;-75
2022/04/03 01:53:15;;;;;;;1.40;0.93;;;;;;;5.75;70.14;93534.66;5016940;28;20200;-73
2022/04/03 01:55:42;;;;;;;3.17;1.20;;;;;;;5.65;69.97;93539.28;5018102;28;20256;-72
2022/04/03 01:58:09;;;;;;;6.97;3.00;;;;;;;5.51;70.68;93535.25;5023653;28;20608;-72
2022/04/03 02:00:38;;;;;;;9.02;3.45;;;;;;;5.41;70.92;93527.56;5023881;28;20196;-75
2022/04/03 02:03:05;;;;;;;8.05;1.30;;;;;;;5.38;70.85;93530.88;5018758;28;20242;-74
2022/04/03 02:05:32;;;;;;;4.43;1.00;;;;;;;5.35;71.74;93526.94;5017551;28;20208;-74
2022/04/03 02:07:59;;;;;;;5.60;1.63;;;;;;;5.38;71.40;93518.22;5023316;28;20296;-73
2022/04/03 02:10:26;;;;;;;0.80;0.75;;;;;;;5.35;71.49;93505.44;5024260;28;20196;-74
2022/04/03 02:12:53;;;;;;;6.90;3.13;;;;;;;5.29;72.77;93528.22;5018802;28;20224;-74
2022/04/03 02:15:20;;;;;;;5.57;2.08;;;;;;;5.33;72.59;93507.66;5017248;28;20218;-75
2022/04/03 02:17:48;;;;;;;3.70;1.20;;;;;;;5.33;72.00;93515.72;5022689;28;20205;-75
2022/04/03 02:20:15;;;;;;;6.57;1.35;;;;;;;5.32;73.07;93516.84;5023757;28;20208;-75
2022/04/03 02:22:42;;;;;;;4.65;1.42;;;;;;;5.31;73.23;93513.38;5019288;28;20246;-74
2022/04/03 02:25:11;;;;;;;1.45;0.70;;;;;;;5.23;72.66;93508.81;5026558;28;20288;-74
2022/04/03 02:27:39;;;;;;;1.20;0.85;;;;;;;5.16;72.68;93513.13;5020036;28;20465;-73
2022/04/03 02:30:08;;;;;;;9.38;4.63;;;;;;;5.13;72.67;93514.53;5017186;28;20205;-74
2022/04/03 02:32:36;;;;;;;10.63;5.10;;;;;;;5.06;73.50;93519.59;5024530;28;20205;-74
2022/04/03 02:35:06;;;;;;;6.30;2.70;;;;;;;5.04;73.44;93526.41;5027818;28;20216;-75
2022/04/03 02:37:33;;;;;;;5.50;1.95;;;;;;;5.11;74.03;93532.84;5024755;28;20239;-75
2022/04/03 02:40:00;;;;;;;5.80;1.58;;;;;;;5.30;74.71;93535.16;5020961;28;20299;-75
2022/04/03 02:42:27;;;;;;;2.47;1.73;;;;;;;5.23;74.19;93529.50;5034010;28;20216;-74
2022/04/03 02:44:54;;;;;;;3.67;1.40;;;;;;;5.26;75.70;93542.28;5020824;28;20228;-75
2022/04/03 02:47:22;;;;;;;2.92;1.65;;;;;;;5.19;74.95;93534.75;5023642;28;20224;-74
2022/04/03 02:49:49;;;;;;;4.00;1.90;;;;;;;5.16;75.13;93531.91;5027536;28;20208;-75
2022/04/03 02:52:17;;;;;;;9.77;4.78;;;;;;;5.07;75.09;93536.47;5025097;28;20212;-74
2022/04/03 02:54:44;;;;;;;8.90;2.75;;;;;;;5.17;76.04;93541.53;5020509;28;20209;-75
2022/04/03 02:57:12;;;;;;;3.33;1.20;;;;;;;5.08;75.12;93532.69;5022019;28;20712;-73
2022/04/03 02:59:40;;;;;;;2.63;1.27;;;;;;;5.05;74.77;93544.09;5027577;28;20580;-74
2022/04/03 03:02:07;;;;;;;3.10;1.77;;;;;;;5.11;74.96;93538.22;5025982;28;20212;-76
2022/04/03 03:04:35;;;;;;;1.73;1.17;;;;;;;5.17;75.96;93536.16;5020890;28;20306;-74
2022/04/03 03:07:02;;;;;;;7.43;1.67;;;;;;;5.03;75.23;93535.56;5021332;28;20205;-74
2022/04/03 03:09:30;;;;;;;2.45;1.35;;;;;;;4.99;75.42;93541.56;5033354;28;20231;-75
2022/04/03 03:11:58;;;;;;;5.72;2.40;;;;;;;5.05;75.17;93538.72;5033555;28;20283;-74
2022/04/03 03:14:25;;;;;;;1.17;1.00;;;;;;;5.13;75.74;93538.69;5020799;28;20208;-73
2022/04/03 03:16:52;;;;;;;4.22;1.48;;;;;;;5.23;72.54;93534.88;5020588;28;20232;-74
2022/04/03 03:19:18;;;;;;;2.00;0.90;;;;;;;5.24;74.59;93537.22;5026320;28;20216;-77
2022/04/03 03:21:46;;;;;;;3.22;1.73;;;;;;;5.27;75.15;93546.53;5027462;28;20205;-75
2022/04/03 03:24:13;;;;;;;2.58;1.33;;;;;;;5.51;70.60;93538.72;5031475;28;20203;-74
2022/04/03 03:26:41;;;;;;;0.47;0.47;;;;;;;5.74;68.40;93539.22;5019516;28;20205;-74
2022/04/03 03:29:08;;;;;;;0.40;0.40;;;;;;;6.11;66.05;93532.28;5025388;28;20556;-74
2022/04/03 03:31:35;;;;;;;1.13;0.70;;;;;;;6.27;65.12;93530.59;5026612;28;20212;-73
2022/04/03 03:34:02;;;;;;;2.30;0.50;;;;;;;6.26;65.29;93545.16;5021704;28;20200;-73
2022/04/03 03:36:29;;;;;;;2.20;0.57;;;;;;;6.24;65.18;93546.59;5019900;28;20225;-73
2022/04/03 03:38:56;;;;;;;0.47;0.47;;;;;;;6.30;63.91;93548.75;5024827;28;20205;-74
2022/04/03 03:41:23;;;;;;;0.47;0.40;;;;;;;6.34;63.70;93546.97;5026565;28;20223;-74
2022/04/03 03:43:51;;;;;;;0.90;0.50;;;;;;;6.34;62.91;93556.94;5022118;28;20240;-74
2022/04/03 03:46:18;;;;;;;0.63;0.52;;;;;;;6.21;64.30;93558.78;5020192;28;20197;-74
2022/04/03 03:48:45;;;;;;;1.27;0.88;;;;;;;6.01;67.43;93564.91;5023268;28;20200;-74
2022/04/03 03:51:12;;;;;;;1.88;1.02;;;;;;;5.89;67.46;93562.91;5026084;28;20200;-72
2022/04/03 03:53:39;;;;;;;0.75;0.57;;;;;;;6.00;64.63;93563.34;5021744;28;20616;-75
2022/04/03 03:56:06;;;;;;;4.47;0.80;;;;;;;5.99;65.17;93567.94;5019300;28;20809;-75
2022/04/03 03:58:34;;;;;;;0.98;0.50;;;;;;;6.19;62.73;93570.97;5022760;28;20197;-74
2022/04/03 04:01:02;;;;;;;0.70;0.52;;;;;;;6.23;63.06;93570.00;5029051;28;20621;-75
2022/04/03 04:03:29;;;;;;;0.82;0.40;;;;;;;6.26;61.41;93572.03;5022458;28;20295;-74
2022/04/03 04:05:56;;;;;;;0.60;0.40;;;;;;;6.43;58.88;93577.28;5025514;28;20205;-74
2022/04/03 04:08:23;;;;;;;0.43;0.40;;;;;;;6.46;59.79;93581.22;5022767;28;20200;-73
2022/04/03 04:10:50;;;;;;;0.90;0.40;;;;;;;6.43;60.35;93588.03;5032447;28;20204;-74
2022/04/03 04:13:17;;;;;;;2.33;1.42;;;;;;;6.36;61.77;93587.00;5021428;28;20664;-74
2022/04/03 04:15:44;;;;;;;0.65;0.50;;;;;;;6.35;60.74;93607.72;5025782;28;20205;-76
2022/04/03 04:18:12;;;;;;;0.20;0.20;;;;;;;6.48;60.54;93600.53;5023227;28;20228;-72
2022/04/03 04:20:39;;;;;;;1.77;0.60;;;;;;;6.59;61.49;93600.91;5018475;28;20637;-75
2022/04/03 04:23:06;;;;;;;0.40;0.40;;;;;;;6.56;61.01;93612.34;5020564;28;20209;-74
2022/04/03 04:25:33;;;;;;;0.98;0.70;;;;;;;6.51;61.10;93615.22;5027032;28;20237;-74
2022/04/03 04:28:00;;;;;;;3.58;1.35;;;;;;;6.54;61.10;93615.38;5012409;28;20204;-74
2022/04/03 04:30:27;;;;;;;0.68;0.50;;;;;;;6.58;61.02;93616.25;5025137;28;20293;-74
2022/04/03 04:32:54;;;;;;;0.77;0.63;;;;;;;6.60;61.41;93624.00;5024193;28;20692;-74
2022/04/03 04:35:22;;;;;;;0.73;0.60;;;;;;;6.70;61.55;93626.31;5019159;28;20210;-73
2022/04/03 04:37:51;;;;;;;0.30;0.30;;;;;;;6.82;60.56;93636.38;5019652;28;20243;-73
2022/04/03 04:40:18;;;;;;;1.38;0.32;;;;;;;6.84;61.30;93639.50;5025381;28;20578;-75
2022/04/03 04:42:45;;;;;;;0.55;0.30;;;;;;;6.91;60.41;93634.41;5025456;28;20266;-74
2022/04/03 04:45:14;;;;;;;0.93;0.45;;;;;;;7.01;60.14;93634.00;5018803;28;20240;-74
2022/04/03 04:47:41;;;;;;;1.08;0.43;;;;;;;7.02;60.67;93636.38;5018310;28;20205;-75
2022/04/03 04:50:09;;;;;;;0.70;0.52;;;;;;;7.11;59.85;93636.28;5024108;28;20205;-75
2022/04/03 04:52:39;;;;;;;1.63;0.30;;;;;;;7.25;59.58;93639.50;5025131;28;20204;-74
2022/04/03 04:55:07;;;;;;;0.40;0.40;;;;;;;7.31;58.85;93640.09;5019229;28;20287;-74
2022/04/03 04:57:34;;;;;;;1.27;0.75;;;;;;;7.45;58.72;93635.19;5018317;28;20244;-72
2022/04/03 05:00:01;;;;;;;2.88;0.40;;;;;;;8.19;56.61;93634.22;5022666;28;20212;-75
2022/04/03 05:02:28;;;;;;;1.00;0.55;;;;;;;8.78;54.28;93628.34;5024993;28;20212;-73
2022/04/03 05:04:55;;;;;;;0.52;0.45;;;;;;;10.30;51.30;93623.59;5020649;28;20335;-73
2022/04/03 05:07:22;;;;;;;0.95;0.43;;;;;;;11.46;47.71;93626.56;5018179;28;20204;-76
2022/04/03 05:09:52;;;;;;;3.80;0.73;;;;;;;11.10;48.18;93633.94;5031381;28;20612;-73
2022/04/03 05:12:19;;;;;;;1.95;0.35;;;;;;;9.96;49.78;93638.59;5018389;28;20315;-71
2022/04/03 05:14:47;;;;;;;1.02;0.63;;;;;;;9.11;52.31;93649.78;5021457;28;20206;-75
2022/04/03 05:17:18;;;;;;;1.20;0.60;;;;;;;8.74;53.71;93654.47;5024980;28;20291;-74
2022/04/03 05:19:45;;;;;;;1.00;0.55;;;;;;;8.11;54.80;93667.47;5022620;28;20192;-73
2022/04/03 05:22:11;;;;;;;1.08;0.35;;;;;;;7.97;55.05;93672.38;5017899;28;20564;-75
2022/04/03 05:24:38;;;;;;;0.65;0.50;;;;;;;7.73;55.67;93659.66;5029662;28;20567;-71
2022/04/03 05:27:06;;;;;;;2.05;0.50;;;;;;;7.52;56.39;93678.53;5017987;28;20212;-74
2022/04/03 05:29:34;;;;;;;0.47;0.40;;;;;;;7.54;55.73;93670.91;5019193;28;20708;-74
2022/04/03 05:32:01;;;;;;;1.00;0.57;;;;;;;7.46;56.55;93677.19;5024441;28;20201;-74
2022/04/03 05:34:28;;;;;;;0.43;0.30;;;;;;;7.45;56.38;93681.00;5023327;28;20635;-74
2022/04/03 05:36:55;;;;;;;0.50;0.50;;;;;;;7.55;57.12;93680.59;5017929;28;20235;-74
2022/04/03 05:39:22;;;;;;;2.22;0.50;;;;;;;7.57;56.21;93688.34;5019037;28;20300;-74
2022/04/03 05:41:53;;;;;;;1.58;0.70;;;;;;;8.03;56.12;93684.53;5024270;28;20550;-75
2022/04/03 05:44:21;;;;;;;0.60;0.60;;;;;;;9.61;52.15;93670.88;5023646;28;20233;-73
2022/04/03 05:46:49;;;;;;;1.00;0.40;;;;;;;11.36;47.82;93665.84;5024384;28;20205;-74
2022/04/03 05:49:16;;;;;;;0.35;0.35;;;;;;;12.82;43.14;93664.69;5024530;28;20254;-72
2022/04/03 05:51:43;;;;;;;1.45;0.63;;;;;;;11.82;43.42;93664.09;5018108;28;20212;-72
2022/04/03 05:54:10;;;;;;;0.35;0.25;;;;;;;12.65;42.43;93665.19;5017799;28;20229;-73
2022/04/03 05:56:37;;;;;;;0.47;0.30;;;;;;;14.26;39.46;93659.91;5023335;28;20288;-74
2022/04/03 05:59:04;;;;;;;0.45;0.43;;;;;;;13.63;38.74;93664.28;5023982;28;20200;-75
2022/04/03 06:01:33;;;;;;;1.63;0.82;;;;;;;12.79;41.11;93681.72;5019042;28;20283;-74
2022/04/03 06:04:11;;;;;;;2.75;2.00;;;;;;;13.55;40.06;93662.59;5017666;28;20208;-76
2022/04/03 06:06:45;;;;;;;3.90;2.50;;;;;;;12.08;43.57;93680.50;5025572;28;20223;-73
2022/04/03 06:09:12;;;;;;;2.80;1.98;;;;;;;12.12;43.21;93677.84;5028834;28;20669;-74
2022/04/03 06:11:39;;;;;;;1.33;0.57;;;;;;;12.75;41.58;93686.28;5025311;28;20614;-72
2022/04/03 06:14:06;;;;;;;2.03;0.85;;;;;;;13.25;40.72;93684.38;5021398;28;20204;-75
2022/04/03 06:16:37;;;;;;;4.35;1.85;;;;;;;13.91;39.83;93674.72;5024109;28;20201;-77
2022/04/03 06:19:04;;;;;;;1.75;0.90;;;;;;;14.02;40.28;93691.94;5028064;28;20796;-76
2022/04/03 06:21:31;;;;;;;0.52;0.40;;;;;;;13.80;40.02;93684.69;5026699;28;20201;-74
2022/04/03 06:23:57;;;;;;;2.85;0.70;;;;;;;13.83;40.45;93689.38;5017735;28;20220;-76
2022/04/03 06:26:27;;;;;;;2.28;0.65;;;;;;;14.48;39.32;93691.69;5026560;28;20724;-75
2022/04/03 06:28:57;;;;;;;1.90;1.00;;;;;;;13.52;39.95;93691.34;5028138;28;20255;-75
2022/04/03 06:31:23;;;;;;;1.80;0.70;;;;;;;13.76;40.71;93702.91;5027342;28;20262;-74
2022/04/03 06:33:52;;;;;;;1.98;0.98;;;;;;;13.96;40.14;93696.16;5020282;28;20213;-75
2022/04/03 06:36:20;;;;;;;2.20;0.98;;;;;;;13.40;40.93;93704.38;5020555;28;20205;-75
2022/04/03 06:38:46;;;;;;;1.98;0.73;;;;;;;14.37;39.96;93701.66;5027109;28;20255;-73
2022/04/03 06:41:13;;;;;;;3.38;0.90;;;;;;;14.26;39.86;93707.00;5027683;28;20204;-75
2022/04/03 06:43:40;;;;;;;1.20;0.60;;;;;;;14.72;39.37;93706.69;5020833;28;20232;-73
2022/04/03 06:46:07;;;;;;;2.95;1.20;;;;;;;14.88;38.99;93704.50;5020722;28;20213;-74
2022/04/03 06:48:34;;;;;;;1.38;0.85;;;;;;;13.99;39.95;93719.91;5026600;28;20668;-76
2022/04/03 06:51:03;;;;;;;1.77;0.70;;;;;;;13.59;41.73;93733.41;5027169;28;20568;-72
2022/04/03 06:53:30;;;;;;;0.90;0.60;;;;;;;13.23;42.16;93737.56;5021586;28;20232;-72
2022/04/03 06:55:57;;;;;;;2.78;0.60;;;;;;;11.56;46.18;93746.09;5033542;28;20208;-75
2022/04/03 06:58:24;;;;;;;1.20;0.70;;;;;;;11.35;46.60;93745.63;5033643;28;20228;-75
2022/04/03 07:00:51;;;;;;;0.60;0.50;;;;;;;11.19;48.23;93756.50;5033052;28;20236;-73
2022/04/03 07:03:18;;;;;;;1.25;0.60;;;;;;;10.29;49.66;93760.06;5033438;28;20208;-74
2022/04/03 07:05:45;;;;;;;2.05;1.45;;;;;;;9.63;50.43;93772.16;5031570;28;20208;-74
2022/04/03 07:08:13;;;;;;;2.10;0.70;;;;;;;9.89;49.88;93782.53;5013317;28;20279;-74
2022/04/03 07:10:40;;;;;;;0.50;0.50;;;;;;;9.88;52.22;93780.97;5026646;28;20209;-75
2022/04/03 07:13:07;;;;;;;2.08;0.77;;;;;;;9.73;51.80;93781.69;5013649;28;20212;-73
2022/04/03 07:15:34;;;;;;;0.57;0.57;;;;;;;9.94;52.81;93785.00;5016451;28;20208;-76
2022/04/03 07:18:00;;;;;;;0.73;0.60;;;;;;;9.23;53.86;93785.63;5032830;28;20247;-75
2022/04/03 07:20:27;;;;;;;0.75;0.40;;;;;;;8.93;53.99;93792.38;5024475;28;20201;-74
2022/04/03 07:22:55;;;;;;;1.30;1.02;;;;;;;8.97;54.72;93804.09;5013174;28;20219;-72
2022/04/03 07:25:24;;;;;;;1.55;0.73;;;;;;;8.92;55.62;93801.63;5027993;28;20206;-73
2022/04/03 07:27:51;;;;;;;0.60;0.50;;;;;;;8.92;55.07;93812.41;5024494;28;20204;-72
2022/04/03 07:30:18;;;;;;;2.63;0.70;;;;;;;8.80;55.02;93815.09;5032117;28;20212;-73
2022/04/03 07:32:44;;;;;;;0.85;0.60;;;;;;;9.15;55.33;93810.88;5021230;28;20209;-74
2022/04/03 07:35:12;;;;;;;3.60;0.93;;;;;;;9.40;53.77;93810.84;5018739;28;20239;-73
2022/04/03 07:37:39;;;;;;;0.75;0.63;;;;;;;9.08;54.87;93815.25;5021713;28;20707;-73
2022/04/03 07:40:08;;;;;;;0.60;0.50;;;;;;;9.66;52.67;93797.72;5022612;28;20302;-73
2022/04/03 07:42:36;;;;;;;0.95;0.45;;;;;;;10.38;50.35;93795.91;5024851;28;20204;-73
2022/04/03 07:45:05;;;;;;;0.82;0.50;;;;;;;11.13;49.78;93797.78;5031344;28;20719;-73
2022/04/03 07:47:31;;;;;;;0.60;0.40;;;;;;;11.31;48.35;93804.41;5032579;28;20270;-76
2022/04/03 07:49:59;;;;;;;0.57;0.55;;;;;;;10.63;49.66;93815.50;5026198;28;20224;-73
2022/04/03 07:52:26;;;;;;;0.30;0.30;;;;;;;10.33;50.53;93809.69;5012930;28;20236;-75
2022/04/03 07:54:53;;;;;;;1.27;0.40;;;;;;;10.32;51.54;93816.22;5012541;28;20240;-75
2022/04/03 07:57:20;;;;;;;0.40;0.40;;;;;;;10.30;50.31;93826.63;5012890;28;20209;-71
2022/04/03 07:59:48;;;;;;;1.95;0.60;;;;;;;10.69;51.18;93828.44;5011911;28;20205;-74
2022/04/03 08:02:16;;;;;;;0.38;0.30;;;;;;;10.38;49.15;93817.56;5025007;28;20205;-75
2022/04/03 08:04:42;;;;;;;0.30;0.30;;;;;;;10.51;49.86;93810.97;5020745;28;20211;-74
2022/04/03 08:07:10;;;;;;;0.47;0.40;;;;;;;10.56;48.64;93824.22;5021864;28;20228;-74
2022/04/03 08:09:37;;;;;;;0.60;0.47;;;;;;;10.58;49.94;93824.66;5022845;28;20201;-75
2022/04/03 08:12:07;;;;;;;2.03;0.55;;;;;;;10.69;50.83;93814.91;5021818;28;20238;-73
2022/04/03 08:14:34;;;;;;;0.63;0.50;;;;;;;11.03;49.43;93810.72;5021160;28;20185;-72
2022/04/03 08:17:02;;;;;;;0.55;0.47;;;;;;;11.05;48.57;93829.34;5020137;28;20282;-74
2022/04/03 08:19:30;;;;;;;0.98;0.55;;;;;;;10.72;48.70;93826.16;5021998;28;20240;-74
2022/04/03 08:21:56;;;;;;;2.40;1.15;;;;;;;10.27;49.06;93816.47;5022283;28;20706;-73
2022/04/03 08:24:23;;;;;;;11.63;3.80;;;;;;;10.51;49.77;93832.63;5016189;28;20201;-76
2022/04/03 08:26:50;;;;;;;0.30;0.30;;;;;;;10.47;49.02;93810.06;5027271;28;20204;-73
2022/04/03 08:29:17;;;;;;;1.70;0.73;;;;;;;10.49;48.79;93829.47;5022108;28;20212;-74
2022/04/03 08:31:44;;;;;;;0.68;0.40;;;;;;;10.61;49.54;93837.53;5025025;28;20235;-75
2022/04/03 08:34:12;;;;;;;3.30;0.77;;;;;;;11.00;48.80;93813.34;5020305;28;20564;-75
2022/04/03 08:36:39;;;;;;;2.03;0.90;;;;;;;11.04;48.27;93822.34;5018136;28;20296;-74
2022/04/03 08:39:07;;;;;;;2.58;1.60;;;;;;;11.70;47.05;93816.16;5022466;28;20239;-74
2022/04/03 08:41:34;;;;;;;2.70;2.13;;;;;;;11.67;47.02;93822.28;5025251;28;20208;-73
2022/04/03 08:44:00;;;;;;;1.33;0.40;;;;;;;11.77;45.88;93829.88;5020934;28;20240;-73
2022/04/03 08:46:33;;;;;;;1.63;0.50;;;;;;;11.35;47.02;93844.00;5017984;28;20213;-73
2022/04/03 08:49:01;;;;;;;0.50;0.38;;;;;;;11.44;46.93;93845.78;5031245;28;20200;-77
2022/04/03 08:51:32;;;;;;;0.32;0.32;;;;;;;11.25;46.92;93844.56;5015028;28;20652;-73
2022/04/03 08:53:59;;;;;;;0.38;0.32;;;;;;;10.97;48.01;93839.22;5011265;28;20312;-74
2022/04/03 08:56:26;;;;;;;0.45;0.45;;;;;;;10.79;49.08;93837.22;5011496;28;20216;-74
2022/04/03 08:58:53;;;;;;;0.63;0.52;;;;;;;11.01;48.58;93844.72;5011464;28;20232;-75
2022/04/03 09:01:19;;;;;;;0.77;0.60;;;;;;;11.39;47.34;93839.47;5011394;28;20656;-75
2022/04/03 09:03:47;;;;;;;0.50;0.40;;;;;;;11.01;47.07;93850.16;5010034;28;20200;-75
2022/04/03 09:06:15;;;;;;;1.38;0.98;;;;;;;11.20;49.73;93847.53;5025488;28;20212;-74
2022/04/03 09:08:44;;;;;;;3.58;0.82;;;;;;;11.44;45.81;93853.91;5023659;28;20200;-78
2022/04/03 09:11:12;;;;;;;0.20;0.20;;;;;;;11.81;45.97;93844.31;5023074;28;20246;-76
2022/04/03 09:13:40;;;;;;;1.20;0.68;;;;;;;11.85;46.45;93838.97;5017996;28;20201;-75
2022/04/03 09:16:08;;;;;;;2.28;0.30;;;;;;;11.51;45.00;93840.50;5011574;28;20619;-79
2022/04/03 09:18:47;;;;;;;0.63;0.35;;;;;;;11.97;43.79;93842.34;5011237;28;20229;-75
2022/04/03 09:21:19;;;;;;;0.50;0.50;;;;;;;12.02;43.53;93838.59;5010684;28;20201;-75
2022/04/03 09:24:05;;;;;;;0.40;0.40;;;;;;;12.30;44.24;93843.81;5016384;28;20208;-76
2022/04/03 09:26:33;;;;;;;0.98;0.50;;;;;;;12.52;44.29;93850.44;5018653;28;20204;-77
2022/04/03 09:29:11;;;;;;;0.60;0.50;;;;;;;13.37;41.75;93850.09;5011260;28;20212;-75
2022/04/03 09:31:38;;;;;;;0.75;0.30;;;;;;;13.40;41.83;93860.22;5011276;28;20608;-79
2022/04/03 09:34:07;;;;;;;0.32;0.32;;;;;;;13.02;40.59;93852.16;5009447;28;20746;-77
2022/04/03 09:36:36;;;;;;;0.57;0.57;;;;;;;13.44;40.46;93858.34;5010945;28;20263;-78
2022/04/03 09:39:09;;;;;;;1.48;0.40;;;;;;;13.24;40.80;93856.84;5019548;28;20258;-77
2022/04/03 09:41:55;;;;;;;2.65;1.10;;;;;;;11.67;46.91;93876.53;5030089;28;20231;-72
2022/04/03 09:44:26;;;;;;;2.70;1.27;;;;;;;9.82;52.34;93890.53;5017634;28;20666;-70
2022/04/03 09:47:19;;;;;;;0.88;0.63;;;;;;;9.29;53.98;93909.72;5018149;28;20278;-75
2022/04/03 09:49:51;;;;;;;0.65;0.40;;;;;;;9.56;53.55;93896.31;5030143;28;20294;-70
2022/04/03 09:52:33;;;;;;;0.77;0.43;;;;;;;9.53;53.02;93885.38;5030451;28;20795;-73
2022/04/03 09:55:02;;;;;;;5.30;0.77;;;;;;;10.33;52.23;93886.28;5030639;28;20291;-72
2022/04/03 09:57:28;;;;;;;0.75;0.47;;;;;;;10.38;50.64;93887.94;5030699;28;20320;-76
2022/04/03 09:59:56;;;;;;;0.60;0.60;;;;;;;11.07;50.53;93881.25;5014505;28;20287;-75
2022/04/03 10:02:24;;;;;;;2.20;0.50;;;;;;;11.94;43.30;93872.91;5010699;28;20209;-76
2022/04/03 10:04:52;;;;;;;2.05;0.40;;;;;;;13.18;41.06;93871.91;5010216;28;20303;-79
2022/04/03 10:07:20;;;;;;;0.70;0.63;;;;;;;14.06;40.50;93875.25;5010548;28;20201;-75
2022/04/03 10:09:49;;;;;;;1.67;0.75;;;;;;;14.08;38.19;93863.94;5019711;28;20207;-78
2022/04/03 10:12:18;;;;;;;1.08;0.55;;;;;;;12.43;41.82;93886.00;5012919;28;20592;-76
2022/04/03 10:14:45;;;;;;;1.05;0.50;;;;;;;11.88;41.27;93881.69;5010457;28;20201;-71
2022/04/03 10:17:14;;;;;;;0.52;0.52;;;;;;;12.17;42.20;93880.38;5027325;28;20235;-73
2022/04/03 10:19:41;;;;;;;1.30;0.63;;;;;;;12.94;41.84;93883.88;5030165;28;20286;-76
2022/04/03 10:22:12;;;;;;;1.55;0.50;;;;;;;11.96;45.05;93888.84;5030194;28;20293;-72
2022/04/03 10:24:41;;;;;;;1.95;1.25;;;;;;;11.49;47.96;93905.16;5028606;28;20275;-75
2022/04/03 10:27:14;;;;;;;1.63;1.25;;;;;;;11.38;49.40;93899.47;5030012;28;20294;-76
2022/04/03 10:29:44;;;;;;;1.60;1.02;;;;;;;10.90;49.23;93909.50;5029900;28;20524;-72
2022/04/03 10:32:23;;;;;;;4.90;1.17;;;;;;;10.62;51.09;93904.09;5029466;28;20208;-72
2022/04/03 10:34:54;;;;;;;1.98;0.77;;;;;;;10.27;51.99;93909.28;5016932;28;20193;-75
2022/04/03 10:37:33;;;;;;;1.90;1.20;;;;;;;9.91;51.92;93912.84;5020650;28;20200;-74
2022/04/03 10:40:07;;;;;;;1.90;1.00;;;;;;;9.76;52.04;93918.94;5022797;28;20707;-75
2022/04/03 10:42:48;;;;;;;0.70;0.60;;;;;;;9.95;50.31;93919.16;5018289;28;20242;-70
2022/04/03 10:45:27;;;;;;;1.58;0.75;;;;;;;10.56;51.40;93913.59;5029252;28;20635;-75
2022/04/03 10:48:27;;;;;;;1.10;0.95;;;;;;;11.47;49.66;93905.53;5029687;28;20215;-73
2022/04/03 10:51:06;;;;;;;0.82;0.60;;;;;;;10.94;48.10;93909.56;5029815;28;20200;-71
2022/04/03 10:53:35;;;;;;;1.67;0.98;;;;;;;10.84;49.75;93907.38;5033280;28;20204;-73
2022/04/03 10:56:07;;;;;;;1.98;1.02;;;;;;;10.78;49.09;93919.59;5032477;28;20201;-73
2022/04/03 10:58:43;;;;;;;1.25;1.00;;;;;;;10.17;51.28;93933.31;5027574;28;20250;-72
2022/04/03 11:01:24;;;;;;;1.08;0.93;;;;;;;9.86;52.47;93948.22;5013355;28;20259;-71
2022/04/03 11:03:56;;;;;;;0.95;0.75;;;;;;;9.00;56.97;93945.81;5013555;28;20236;-73
2022/04/03 11:06:31;;;;;;;1.48;1.08;;;;;;;8.68;60.12;93939.28;5021808;28;20255;-73
2022/04/03 11:09:09;;;;;;;4.68;1.17;;;;;;;8.95;60.12;93951.41;5032562;28;20226;-74
2022/04/03 11:11:59;;;;;;;1.60;1.10;;;;;;;8.65;60.23;93942.63;5022260;28;20263;-73
2022/04/03 11:14:53;;;;;;;1.55;1.10;;;;;;;8.66;59.97;93949.63;5013221;28;20205;-77
2022/04/03 11:17:59;;;;;;;2.72;1.75;;;;;;;8.92;61.97;93947.44;5030413;28;20228;-75
2022/04/03 11:20:31;;;;;;;3.13;1.67;;;;;;;9.20;61.61;93940.31;5032705;28;20259;-79
2022/04/03 11:22:59;;;;;;;4.43;1.02;;;;;;;8.91;61.03;93929.66;5032920;28;20235;-75
2022/04/03 11:25:26;;;;;;;1.67;1.33;;;;;;;8.84;64.13;93926.75;5013942;28;20293;-75
2022/04/03 11:27:53;;;;;;;1.00;0.90;;;;;;;8.83;61.38;93939.44;5012892;28;20201;-73
2022/04/03 11:30:20;;;;;;;4.82;2.85;;;;;;;9.29;62.93;93939.44;5013285;28;20213;-73
2022/04/03 11:32:49;;;;;;;1.20;0.90;;;;;;;8.99;59.38;93936.91;5012971;28;20208;-72
2022/04/03 11:35:16;;;;;;;1.42;1.10;;;;;;;8.86;58.01;93963.09;5012761;28;20212;-74
2022/04/03 11:37:44;;;;;;;3.35;1.30;;;;;;;8.89;60.13;93950.81;5012608;28;20213;-72
2022/04/03 11:40:12;;;;;;;2.35;1.75;;;;;;;9.06;59.94;93956.03;5011917;28;20240;-73
2022/04/03 11:42:39;;;;;;;2.00;0.98;;;;;;;8.86;59.68;93948.81;5012273;28;20300;-73
2022/04/03 11:45:07;;;;;;;2.45;1.65;;;;;;;8.51;61.49;93968.00;5012179;28;20237;-72